createdAt,value
2019-04-27T00:01:31.448Z,4.72
2019-04-27T00:04:05.691Z,3.08
2019-04-27T00:06:38.263Z,6.85
2019-04-27T00:09:22.832Z,2.17
2019-04-27T00:11:57.074Z,2.98
2019-04-27T00:14:23.998Z,3.20
2019-04-27T00:17:10.839Z,5.35
2019-04-27T00:19:51.117Z,3.00
2019-04-27T00:22:19.562Z,3.72
2019-04-27T00:24:46.224Z,4.78
2019-04-27T00:27:13.385Z,4.03
2019-04-27T00:29:40.256Z,12.85
2019-04-27T00:32:07.062Z,6.95
2019-04-27T00:34:34.622Z,4.47
2019-04-27T00:37:20.099Z,4.00
2019-04-27T00:39:51.369Z,3.90
2019-04-27T00:42:19.218Z,5.05
2019-04-27T00:44:45.901Z,3.02
2019-04-27T00:47:13.779Z,4.28
2019-04-27T00:49:40.702Z,4.20
2019-04-27T00:52:07.353Z,2.05
2019-04-27T00:54:38.383Z,3.20
2019-04-27T00:57:13.008Z,5.47
2019-04-27T00:59:56.661Z,2.22
2019-04-27T01:02:35.430Z,4.62
2019-04-27T01:05:05.929Z,4.22
2019-04-27T01:07:33.375Z,3.47
2019-04-27T01:10:00.532Z,3.95
2019-04-27T01:12:30.991Z,1.92
2019-04-27T01:14:58.963Z,2.00
2019-04-27T01:17:25.620Z,3.17
2019-04-27T01:19:52.281Z,2.95
2019-04-27T01:22:18.959Z,1.65
2019-04-27T01:24:45.681Z,5.05
2019-04-27T01:27:25.947Z,4.75
2019-04-27T01:29:54.363Z,4.42
2019-04-27T01:32:20.960Z,4.10
2019-04-27T01:34:49.296Z,2.12
2019-04-27T01:37:17.179Z,4.60
2019-04-27T01:39:43.749Z,5.40
2019-04-27T01:42:10.735Z,4.28
2019-04-27T01:44:39.350Z,2.60
2019-04-27T01:47:06.212Z,4.08
2019-04-27T01:49:33.114Z,4.28
2019-04-27T01:51:59.875Z,7.15
2019-04-27T01:54:29.063Z,2.42
2019-04-27T01:56:55.833Z,4.50
2019-04-27T01:59:22.466Z,4.50
2019-04-27T02:02:08.774Z,5.10
2019-04-27T02:04:39.540Z,3.72
2019-04-27T02:07:09.092Z,4.40
2019-04-27T02:09:38.679Z,3.33
2019-04-27T02:12:05.711Z,4.45
2019-04-27T02:14:32.461Z,5.15
2019-04-27T02:16:59.574Z,4.72
2019-04-27T02:19:26.699Z,4.05
2019-04-27T02:21:53.401Z,4.17
2019-04-27T02:24:20.177Z,4.70
2019-04-27T02:26:46.863Z,4.87
2019-04-27T02:29:25.855Z,4.03
2019-04-27T02:32:11.419Z,2.87
2019-04-27T02:34:46.343Z,4.80
2019-04-27T02:37:13.037Z,5.53
2019-04-27T02:39:41.525Z,8.00
2019-04-27T02:42:10.153Z,2.75
2019-04-27T02:44:40.456Z,4.30
2019-04-27T02:47:09.984Z,8.40
2019-04-27T02:49:36.202Z,5.37
2019-04-27T02:52:09.398Z,6.50
2019-04-27T02:54:36.355Z,4.22
2019-04-27T02:57:03.133Z,3.85
2019-04-27T02:59:30.501Z,3.55
2019-04-27T03:02:04.994Z,5.30
2019-04-27T03:04:31.673Z,4.78
2019-04-27T03:07:00.297Z,5.03
2019-04-27T03:09:26.992Z,4.28
2019-04-27T03:11:54.273Z,8.58
2019-04-27T03:14:40.523Z,4.40
2019-04-27T03:17:22.842Z,5.75
2019-04-27T03:19:54.509Z,5.30
2019-04-27T03:22:25.874Z,5.28
2019-04-27T03:24:59.757Z,5.30
2019-04-27T03:27:30.130Z,5.72
2019-04-27T03:29:59.670Z,6.00
2019-04-27T03:32:31.335Z,7.67
2019-04-27T03:34:57.094Z,5.03
2019-04-27T03:37:23.799Z,6.95
2019-04-27T03:39:50.831Z,5.28
2019-04-27T03:42:20.497Z,7.60
2019-04-27T03:44:46.622Z,5.78
2019-04-27T03:47:13.392Z,8.68
2019-04-27T03:49:41.507Z,5.30
2019-04-27T03:52:25.573Z,7.92
2019-04-27T03:55:00.212Z,4.47
2019-04-27T03:57:31.561Z,5.35
2019-04-27T04:00:00.232Z,4.40
2019-04-27T04:02:30.298Z,9.80
2019-04-27T04:04:58.996Z,4.50
2019-04-27T04:07:26.690Z,6.67
2019-04-27T04:09:53.437Z,6.28
2019-04-27T04:12:24.938Z,5.08
2019-04-27T04:14:51.665Z,10.35
2019-04-27T04:17:20.505Z,5.78
2019-04-27T04:19:56.823Z,6.25
2019-04-27T04:22:15.984Z,4.60
2019-04-27T04:24:43.947Z,5.87
2019-04-27T04:27:11.033Z,8.58
2019-04-27T04:29:39.501Z,5.25
2019-04-27T04:32:07.283Z,4.17
2019-04-27T04:34:33.947Z,9.15
2019-04-27T04:37:00.715Z,5.67
2019-04-27T04:39:29.685Z,4.75
2019-04-27T04:41:59.696Z,10.68
2019-04-27T04:44:30.217Z,5.65
2019-04-27T04:47:00.374Z,6.40
2019-04-27T04:49:29.576Z,5.55
2019-04-27T04:51:59.262Z,8.08
2019-04-27T04:54:29.702Z,8.00
2019-04-27T04:56:55.734Z,7.28
2019-04-27T04:59:23.633Z,6.25
2019-04-27T05:01:50.311Z,7.85
2019-04-27T05:04:16.942Z,8.85
2019-04-27T05:06:43.562Z,6.33
2019-04-27T05:09:10.493Z,5.25
2019-04-27T05:11:39.636Z,5.60
2019-04-27T05:14:06.918Z,12.93
2019-04-27T05:16:33.541Z,10.93
2019-04-27T05:19:00.187Z,8.80
2019-04-27T05:21:35.603Z,7.35
2019-04-27T05:24:03.887Z,6.78
2019-04-27T05:26:30.619Z,6.30
2019-04-27T05:28:59.138Z,5.87
2019-04-27T05:31:29.234Z,6.95
2019-04-27T05:33:56.398Z,7.53
2019-04-27T05:36:23.031Z,9.55
2019-04-27T05:38:49.950Z,5.50
2019-04-27T05:41:18.694Z,7.10
2019-04-27T05:43:56.532Z,5.45
2019-04-27T05:46:25.061Z,5.28
2019-04-27T05:48:51.700Z,8.50
2019-04-27T05:51:19.727Z,7.55
2019-04-27T05:53:46.617Z,6.42
2019-04-27T05:56:13.298Z,5.65
2019-04-27T05:58:41.739Z,7.00
2019-04-27T06:01:09.589Z,5.55
2019-04-27T06:03:36.982Z,6.95
2019-04-27T06:06:03.576Z,5.58
2019-04-27T06:08:32.337Z,11.00
2019-04-27T06:10:59.331Z,10.15
2019-04-27T06:13:30.791Z,7.25
2019-04-27T06:15:57.008Z,7.78
2019-04-27T06:18:23.705Z,8.00
2019-04-27T06:20:55.563Z,15.05
2019-04-27T06:23:21.024Z,10.90
2019-04-27T06:25:49.212Z,7.25
2019-04-27T06:28:16.105Z,10.23
2019-04-27T06:30:42.811Z,5.95
2019-04-27T06:33:09.540Z,6.92
2019-04-27T06:35:36.320Z,7.25
2019-04-27T06:38:03.158Z,7.58
2019-04-27T06:40:29.871Z,8.63
2019-04-27T06:42:56.591Z,7.55
2019-04-27T06:45:24.242Z,7.10
2019-04-27T06:47:51.305Z,7.95
2019-04-27T06:50:20.581Z,7.42
2019-04-27T06:52:48.950Z,6.40
2019-04-27T06:55:15.848Z,9.05
2019-04-27T06:57:43.354Z,7.97
2019-04-27T07:00:10.300Z,10.75
2019-04-27T07:02:39.040Z,8.40
2019-04-27T07:05:06.425Z,11.65
2019-04-27T07:07:35.049Z,9.80
2019-04-27T07:10:02.161Z,11.05
2019-04-27T07:12:30.879Z,8.88
2019-04-27T07:17:45.978Z,6.12
2019-04-27T07:20:13.387Z,4.58
2019-04-27T07:22:42.910Z,5.53
2019-04-27T07:25:09.538Z,14.68
2019-04-27T07:27:36.158Z,7.12
2019-04-27T07:30:05.376Z,4.67
2019-04-27T07:32:34.324Z,5.22
2019-04-27T07:35:00.928Z,3.70
2019-04-27T07:37:29.275Z,5.33
2019-04-27T07:39:59.188Z,5.08
2019-04-27T07:42:31.615Z,3.65
2019-04-27T07:45:09.369Z,4.47
2019-04-27T07:47:39.333Z,3.15
2019-04-27T07:50:09.630Z,4.20
2019-04-27T07:52:38.700Z,3.95
2019-04-27T07:55:05.510Z,4.28
2019-04-27T07:57:32.297Z,12.47
2019-04-27T07:59:59.633Z,5.87
2019-04-27T08:02:29.137Z,3.90
2019-04-27T08:04:55.961Z,3.67
2019-04-27T08:07:22.593Z,6.40
2019-04-27T08:09:49.753Z,6.35
2019-04-27T08:12:18.556Z,3.15
2019-04-27T08:14:45.607Z,4.30
2019-04-27T08:17:12.245Z,2.95
2019-04-27T08:19:40.414Z,4.87
2019-04-27T08:22:09.601Z,3.58
2019-04-27T08:24:39.587Z,3.30
2019-04-27T08:27:09.407Z,4.10
2019-04-27T08:29:39.361Z,5.45
2019-04-27T08:32:19.586Z,3.02
2019-04-27T08:34:49.643Z,2.45
2019-04-27T08:37:16.409Z,3.87
2019-04-27T08:39:43.063Z,7.33
2019-04-27T08:42:09.708Z,3.80
2019-04-27T08:44:37.235Z,3.77
2019-04-27T08:47:05.154Z,6.92
2019-04-27T08:49:32.187Z,2.87
2019-04-27T08:52:01.709Z,3.95
2019-04-27T08:54:29.313Z,3.35
2019-04-27T08:56:56.645Z,8.75
2019-04-27T08:59:24.312Z,3.85
2019-04-27T09:01:52.037Z,5.90
2019-04-27T09:04:22.490Z,4.45
2019-04-27T09:06:51.150Z,5.17
2019-04-27T09:09:29.548Z,4.87
2019-04-27T09:12:01.149Z,2.40
2019-04-27T09:14:29.606Z,8.50
2019-04-27T09:17:02.658Z,3.55
2019-04-27T09:19:36.307Z,4.80
2019-04-27T09:22:13.452Z,4.78
2019-04-27T09:24:33.307Z,3.02
2019-04-27T09:27:00.474Z,3.80
2019-04-27T09:29:27.143Z,5.55
2019-04-27T09:31:53.915Z,3.00
2019-04-27T09:34:20.567Z,5.95
2019-04-27T09:36:47.257Z,2.98
2019-04-27T09:39:16.303Z,4.95
2019-04-27T09:41:43.132Z,4.12
2019-04-27T09:44:12.022Z,2.72
2019-04-27T09:46:42.006Z,3.73
2019-04-27T09:49:12.146Z,2.40
2019-04-27T09:51:38.654Z,4.72
2019-04-27T09:54:05.900Z,0.82
2019-04-27T09:56:33.081Z,2.10
2019-04-27T09:59:01.001Z,4.37
2019-04-27T10:01:28.909Z,1.47
2019-04-27T10:03:56.639Z,2.87
2019-04-27T10:06:23.498Z,1.92
2019-04-27T10:08:50.925Z,2.60
2019-04-27T10:11:17.571Z,0.57
2019-04-27T10:13:46.528Z,3.55
2019-04-27T10:16:14.825Z,0.65
2019-04-27T10:18:42.258Z,0.72
2019-04-27T10:21:08.978Z,0.75
2019-04-27T10:23:36.514Z,0.85
2019-04-27T10:26:06.251Z,0.93
2019-04-27T10:28:37.255Z,1.57
2019-04-27T10:31:07.031Z,0.78
2019-04-27T10:34:00.514Z,0.70
2019-04-27T10:39:45.883Z,1.77
2019-04-27T10:42:16.675Z,0.30
2019-04-27T10:44:46.196Z,0.50
2019-04-27T10:47:13.294Z,0.72
2019-04-27T10:52:37.860Z,0.30
2019-04-27T10:55:08.496Z,0.98
2019-04-27T10:57:36.981Z,1.98
2019-04-27T11:00:06.828Z,0.82
2019-04-27T11:02:36.041Z,1.20
2019-04-27T11:08:09.282Z,1.02
2019-04-27T11:13:25.782Z,1.37
2019-04-27T11:15:52.856Z,1.05
2019-04-27T11:18:21.238Z,1.00
2019-04-27T11:20:49.646Z,1.12
2019-04-27T11:23:16.759Z,0.80
2019-04-27T11:25:46.796Z,1.02
2019-04-27T11:28:15.664Z,0.80
2019-04-27T11:30:42.733Z,1.50
2019-04-27T11:33:13.611Z,1.50
2019-04-27T11:35:53.659Z,0.95
2019-04-27T11:38:20.659Z,1.57
2019-04-27T11:40:54.525Z,2.20
2019-04-27T11:43:26.027Z,2.72
2019-04-27T11:45:55.978Z,1.05
2019-04-27T11:48:29.834Z,1.77
2019-04-27T11:50:58.981Z,2.12
2019-04-27T11:53:26.219Z,1.17
2019-04-27T11:55:54.252Z,2.12
2019-04-27T11:58:23.753Z,2.27
2019-04-27T12:00:50.541Z,1.35
2019-04-27T12:03:18.150Z,2.12
2019-04-27T12:05:48.151Z,1.42
2019-04-27T12:08:16.192Z,5.20
2019-04-27T12:10:46.435Z,2.12
2019-04-27T12:13:16.789Z,2.15
2019-04-27T12:15:46.545Z,0.93
2019-04-27T12:18:17.884Z,0.63
2019-04-27T12:20:45.767Z,0.47
2019-04-27T12:23:16.756Z,0.93
2019-04-27T12:25:46.171Z,0.85
2019-04-27T12:28:20.352Z,1.52
2019-04-27T12:30:50.192Z,1.57
2019-04-27T12:33:21.542Z,2.42
2019-04-27T12:38:47.106Z,1.85
2019-04-27T12:44:04.372Z,1.32
2019-04-27T12:46:31.038Z,0.78
2019-04-27T12:49:05.948Z,2.00
2019-04-27T12:51:35.602Z,1.27
2019-04-27T12:54:06.011Z,1.05
2019-04-27T12:56:35.667Z,0.50
2019-04-27T12:59:04.338Z,0.53
2019-04-27T13:01:31.434Z,1.47
2019-04-27T13:04:02.731Z,2.77
2019-04-27T13:09:17.755Z,2.08
2019-04-27T13:11:45.930Z,3.15
2019-04-27T13:14:14.188Z,1.20
2019-04-27T13:16:45.709Z,4.10
2019-04-27T13:19:12.658Z,1.02
2019-04-27T13:21:39.303Z,1.47
2019-04-27T13:24:07.032Z,3.15
2019-04-27T13:26:33.822Z,1.90
2019-04-27T13:29:00.488Z,1.98
2019-04-27T13:31:27.147Z,0.95
2019-04-27T13:33:55.629Z,2.87
2019-04-27T13:36:22.287Z,0.80
2019-04-27T13:38:48.958Z,1.72
2019-04-27T13:41:27.475Z,2.10
2019-04-27T13:43:44.124Z,2.58
2019-04-27T13:46:30.588Z,1.17
2019-04-27T13:49:01.740Z,1.12
2019-04-27T13:51:36.275Z,1.25
2019-04-27T13:54:14.583Z,2.35
2019-04-27T13:56:32.121Z,4.90
2019-04-27T13:58:58.789Z,2.40
2019-04-27T14:01:26.542Z,1.40
2019-04-27T14:03:53.147Z,3.37
2019-04-27T14:06:19.824Z,2.75
2019-04-27T14:08:46.439Z,4.28
2019-04-27T14:11:13.035Z,5.65
2019-04-27T14:13:39.673Z,2.60
2019-04-27T14:16:06.280Z,3.17
2019-04-27T14:18:32.869Z,1.72
2019-04-27T14:21:00.574Z,1.25
2019-04-27T14:23:30.051Z,0.70
2019-04-27T14:25:58.510Z,2.08
2019-04-27T14:28:28.992Z,3.25
2019-04-27T14:30:55.962Z,2.70
2019-04-27T14:33:22.856Z,1.42
2019-04-27T14:35:52.305Z,1.17
2019-04-27T14:38:19.187Z,2.12
2019-04-27T14:40:45.875Z,1.67
2019-04-27T14:43:13.239Z,1.15
2019-04-27T14:45:39.841Z,1.05
2019-04-27T14:48:08.141Z,0.85
2019-04-27T14:50:35.392Z,0.80
2019-04-27T14:53:02.317Z,1.10
2019-04-27T14:55:30.178Z,0.80
2019-04-27T14:57:58.869Z,0.80
2019-04-27T15:00:25.566Z,0.80
2019-04-27T15:02:52.201Z,0.98
2019-04-27T15:05:18.867Z,0.98
2019-04-27T15:07:46.773Z,1.22
2019-04-27T15:10:16.233Z,2.33
2019-04-27T15:12:43.521Z,1.42
2019-04-27T15:15:10.347Z,1.72
2019-04-27T15:17:36.948Z,1.47
2019-04-27T15:20:12.528Z,1.15
2019-04-27T15:22:40.339Z,0.70
2019-04-27T15:25:13.595Z,1.35
2019-04-27T15:27:43.346Z,1.62
2019-04-27T15:30:14.424Z,0.95
2019-04-27T15:32:51.763Z,3.20
2019-04-27T15:35:40.641Z,2.85
2019-04-27T15:38:18.771Z,14.43
2019-04-27T15:40:54.323Z,2.08
2019-04-27T15:43:27.316Z,1.98
2019-04-27T15:45:53.403Z,1.40
2019-04-27T15:48:20.516Z,1.10
2019-04-27T15:50:47.178Z,1.45
2019-04-27T15:53:13.807Z,0.90
2019-04-27T15:55:42.308Z,1.10
2019-04-27T15:58:09.895Z,2.20
2019-04-27T16:00:38.352Z,0.85
2019-04-27T16:03:05.044Z,1.52
2019-04-27T16:05:33.376Z,1.52
2019-04-27T16:08:06.135Z,0.88
2019-04-27T16:10:35.375Z,1.12
2019-04-27T16:13:06.450Z,0.72
2019-04-27T16:15:29.934Z,1.65
2019-04-27T16:17:58.486Z,2.83
2019-04-27T16:20:30.057Z,2.00
2019-04-27T16:22:56.703Z,1.75
2019-04-27T16:25:28.265Z,1.40
2019-04-27T16:27:52.666Z,1.65
2019-04-27T16:30:20.649Z,3.92
2019-04-27T16:32:48.054Z,1.70
2019-04-27T16:35:19.628Z,0.93
2019-04-27T16:38:01.618Z,3.52
2019-04-27T16:40:30.130Z,2.42
2019-04-27T16:42:58.481Z,1.30
2019-04-27T16:45:27.179Z,1.77
2019-04-27T16:47:56.537Z,1.70
2019-04-27T16:50:25.502Z,3.27
2019-04-27T16:52:56.872Z,2.15
2019-04-27T16:55:19.882Z,1.50
2019-04-27T16:57:46.711Z,1.77
2019-04-27T17:00:15.771Z,1.42
2019-04-27T17:02:42.485Z,0.93
2019-04-27T17:05:09.505Z,1.75
2019-04-27T17:07:37.550Z,2.50
2019-04-27T17:10:04.746Z,2.20
2019-04-27T17:12:34.803Z,1.60
2019-04-27T17:15:05.873Z,2.45
2019-04-27T17:17:42.731Z,5.45
2019-04-27T17:20:08.605Z,1.87
2019-04-27T17:22:35.230Z,5.53
2019-04-27T17:25:02.035Z,3.33
2019-04-27T17:27:31.750Z,3.30
2019-04-27T17:30:01.666Z,2.75
2019-04-27T17:32:41.141Z,3.47
2019-04-27T17:35:11.986Z,3.25
2019-04-27T17:37:38.238Z,6.58
2019-04-27T17:40:05.175Z,16.05
2019-04-27T17:42:31.774Z,4.92
2019-04-27T17:45:00.463Z,3.67
2019-04-27T17:47:29.964Z,3.72
2019-04-27T17:49:58.369Z,5.60
2019-04-27T17:52:25.082Z,2.80
2019-04-27T17:54:51.764Z,5.97
2019-04-27T17:57:22.264Z,2.95
2019-04-27T17:59:51.377Z,3.27
2019-04-27T18:02:15.402Z,3.05
2019-04-27T18:04:41.984Z,3.47
2019-04-27T18:07:08.998Z,5.42
2019-04-27T18:09:39.889Z,2.80
2019-04-27T18:12:08.141Z,3.47
2019-04-27T18:14:37.059Z,3.95
2019-04-27T18:17:03.742Z,4.22
2019-04-27T18:19:32.856Z,3.17
2019-04-27T18:22:01.323Z,1.67
2019-04-27T18:24:33.767Z,3.98
2019-04-27T18:27:04.484Z,4.33
2019-04-27T18:29:31.338Z,7.35
2019-04-27T18:31:58.266Z,5.60
2019-04-27T18:34:24.999Z,5.58
2019-04-27T18:36:51.630Z,6.90
2019-04-27T18:39:18.348Z,7.90
2019-04-27T18:41:50.540Z,6.87
2019-04-27T18:44:19.122Z,10.70
2019-04-27T18:46:45.984Z,8.63
2019-04-27T18:49:14.405Z,5.58
2019-04-27T18:51:48.319Z,5.83
2019-04-27T18:54:16.196Z,9.23
2019-04-27T18:56:42.819Z,11.05
2019-04-27T18:59:09.503Z,7.78
2019-04-27T19:01:36.105Z,8.88
2019-04-27T19:07:17.619Z,9.05
2019-04-27T19:09:49.423Z,8.15
2019-04-27T19:12:14.622Z,7.83
2019-04-27T19:14:42.376Z,5.25
2019-04-27T19:17:08.963Z,5.25
2019-04-27T19:22:30.497Z,15.78
2019-04-27T19:24:57.129Z,5.47
2019-04-27T19:27:31.078Z,5.62
2019-04-27T19:30:02.679Z,4.50
2019-04-27T19:32:35.704Z,4.70
2019-04-27T19:35:08.260Z,7.85
2019-04-27T19:37:39.806Z,6.50
2019-04-27T19:40:08.513Z,6.95
2019-04-27T19:42:35.191Z,5.17
2019-04-27T19:45:02.285Z,6.45
2019-04-27T19:47:29.918Z,11.22
2019-04-27T19:49:56.756Z,13.40
2019-04-27T19:52:23.299Z,7.85
2019-04-27T19:54:50.212Z,5.90
2019-04-27T19:57:34.985Z,7.45
2019-04-27T19:59:56.132Z,7.55
2019-04-27T20:02:25.102Z,8.60
2019-04-27T20:04:53.598Z,8.38
2019-04-27T20:07:22.417Z,7.20
2019-04-27T20:09:58.359Z,7.58
2019-04-27T20:12:35.877Z,6.53
2019-04-27T20:18:33.656Z,8.08
2019-04-27T20:21:01.296Z,8.10
2019-04-27T20:23:27.872Z,7.83
2019-04-27T20:25:54.967Z,13.22
2019-04-27T20:28:23.130Z,7.28
2019-04-27T20:30:51.893Z,9.03
2019-04-27T20:33:21.079Z,8.10
2019-04-27T20:35:48.691Z,5.80
2019-04-27T20:38:17.387Z,6.42
2019-04-27T20:40:44.095Z,6.12
2019-04-27T20:43:11.146Z,6.87
2019-04-27T20:45:39.228Z,5.30
2019-04-27T20:48:06.319Z,8.45
2019-04-27T20:50:36.367Z,7.90
2019-04-27T20:53:04.948Z,9.28
2019-04-27T20:55:33.406Z,7.12
2019-04-27T20:58:02.930Z,7.78
2019-04-27T21:00:31.848Z,9.58
2019-04-27T21:03:02.425Z,9.00
2019-04-27T21:05:38.143Z,9.20
2019-04-27T21:08:09.260Z,8.23
2019-04-27T21:10:36.123Z,8.87
2019-04-27T21:13:04.467Z,9.35
2019-04-27T21:15:31.563Z,9.80
2019-04-27T21:17:58.501Z,9.10
2019-04-27T21:20:26.638Z,8.30
2019-04-27T21:22:53.581Z,7.47
2019-04-27T21:25:20.460Z,12.35
2019-04-27T21:27:47.197Z,11.15
2019-04-27T21:30:14.795Z,8.05
2019-04-27T21:32:42.717Z,8.85
2019-04-27T21:35:10.854Z,7.92
2019-04-27T21:37:38.228Z,9.43
2019-04-27T21:40:13.033Z,11.15
2019-04-27T21:42:41.650Z,11.55
2019-04-27T21:45:08.615Z,9.20
2019-04-27T21:47:35.220Z,8.28
2019-04-27T21:50:04.358Z,8.83
2019-04-27T21:52:35.243Z,9.50
2019-04-27T21:55:02.349Z,9.18
2019-04-27T21:57:31.104Z,8.13
2019-04-27T21:59:58.005Z,11.22
2019-04-27T22:02:25.188Z,8.05
2019-04-27T22:04:51.955Z,14.35
2019-04-27T22:07:21.589Z,7.15
2019-04-27T22:09:51.879Z,6.15
2019-04-27T22:12:21.250Z,9.95
2019-04-27T22:14:50.890Z,9.93
2019-04-27T22:17:18.555Z,6.87
2019-04-27T22:19:45.481Z,7.90
2019-04-27T22:22:13.993Z,5.22
2019-04-27T22:24:42.859Z,7.08
2019-04-27T22:27:10.357Z,7.33
2019-04-27T22:29:37.620Z,8.33
2019-04-27T22:35:25.004Z,6.22
2019-04-27T22:37:51.805Z,7.25
2019-04-27T22:40:22.187Z,7.00
2019-04-27T22:42:56.855Z,6.65
2019-04-27T22:45:27.241Z,9.35
2019-04-27T22:47:53.939Z,7.12
2019-04-27T22:50:21.136Z,9.38
2019-04-27T22:52:48.215Z,9.15
2019-04-27T22:55:14.994Z,5.40
2019-04-27T22:57:55.911Z,6.20
2019-04-27T23:00:24.593Z,6.45
2019-04-27T23:02:54.146Z,7.95
2019-04-27T23:05:20.996Z,6.53
2019-04-27T23:07:47.941Z,8.28
2019-04-27T23:10:15.627Z,6.65
2019-04-27T23:12:44.240Z,6.87
2019-04-27T23:15:12.995Z,6.08
2019-04-27T23:17:53.858Z,9.08
2019-04-27T23:20:20.871Z,7.10
2019-04-27T23:22:48.557Z,5.83
2019-04-27T23:25:17.166Z,8.18
2019-04-27T23:27:43.783Z,6.35
2019-04-27T23:30:12.016Z,6.25
2019-04-27T23:32:44.982Z,4.65
2019-04-27T23:35:12.899Z,5.62
2019-04-27T23:37:39.822Z,8.25
2019-04-27T23:40:11.006Z,7.10
2019-04-27T23:42:38.288Z,8.03
2019-04-27T23:45:06.820Z,7.97
2019-04-27T23:47:35.573Z,9.63
2019-04-27T23:50:03.559Z,6.75
2019-04-27T23:52:50.610Z,5.62
2019-04-27T23:55:20.876Z,6.87
2019-04-27T23:57:48.441Z,10.20
